createdAt,value
2019-04-25T00:00:36.674Z,100.00
2019-04-25T00:03:06.789Z,100.00
2019-04-25T00:05:38.717Z,100.00
2019-04-25T00:08:09.242Z,100.00
2019-04-25T00:10:39.242Z,100.00
2019-04-25T00:13:09.250Z,100.00
2019-04-25T00:15:39.957Z,100.00
2019-04-25T00:18:09.991Z,100.00
2019-04-25T00:20:43.601Z,100.00
2019-04-25T00:23:16.594Z,100.00
2019-04-25T00:26:21.146Z,100.00
2019-04-25T00:28:52.388Z,100.00
2019-04-25T00:31:22.812Z,100.00
2019-04-25T00:33:53.358Z,100.00
2019-04-25T00:36:23.153Z,100.00
2019-04-25T00:38:53.298Z,100.00
2019-04-25T00:41:23.038Z,100.00
2019-04-25T00:43:52.966Z,100.00
2019-04-25T00:46:22.876Z,100.00
2019-04-25T00:48:52.744Z,100.00
2019-04-25T00:51:22.649Z,100.00
2019-04-25T00:53:54.723Z,100.00
2019-04-25T00:56:23.752Z,100.00
2019-04-25T00:59:05.669Z,100.00
2019-04-25T01:01:57.247Z,100.00
2019-04-25T01:04:29.110Z,100.00
2019-04-25T01:06:58.954Z,100.00
2019-04-25T01:09:29.091Z,100.00
2019-04-25T01:11:59.095Z,100.00
2019-04-25T01:14:28.982Z,100.00
2019-04-25T01:16:58.868Z,100.00
2019-04-25T01:19:29.850Z,100.00
2019-04-25T01:21:59.826Z,100.00
2019-04-25T01:24:29.615Z,100.00
2019-04-25T01:26:59.636Z,100.00
2019-04-25T01:29:29.476Z,100.00
2019-04-25T01:31:59.324Z,100.00
2019-04-25T01:34:44.173Z,100.00
2019-04-25T01:37:31.452Z,100.00
2019-04-25T01:40:18.850Z,100.00
2019-04-25T01:43:16.752Z,100.00
2019-04-25T01:45:48.106Z,100.00
2019-04-25T01:48:18.216Z,100.00
2019-04-25T01:50:49.341Z,100.00
2019-04-25T01:53:19.496Z,100.00
2019-04-25T01:55:55.840Z,100.00
2019-04-25T01:58:21.222Z,100.00
2019-04-25T02:00:54.563Z,100.00
2019-04-25T02:03:27.021Z,100.00
2019-04-25T02:05:56.154Z,100.00
2019-04-25T02:08:26.986Z,100.00
2019-04-25T02:11:14.421Z,100.00
2019-04-25T02:13:44.194Z,100.00
2019-04-25T02:16:14.274Z,100.00
2019-04-25T02:18:44.152Z,100.00
2019-04-25T02:21:14.029Z,100.00
2019-04-25T02:23:44.302Z,100.00
2019-04-25T02:26:17.919Z,100.00
2019-04-25T02:28:45.543Z,100.00
2019-04-25T02:31:18.303Z,100.00
2019-04-25T02:33:47.121Z,100.00
2019-04-25T02:36:17.035Z,100.00
2019-04-25T02:38:47.002Z,100.00
2019-04-25T02:41:16.991Z,100.00
2019-04-25T02:43:46.807Z,100.00
2019-04-25T02:46:34.823Z,100.00
2019-04-25T02:49:32.711Z,100.00
2019-04-25T02:52:06.926Z,100.00
2019-04-25T02:54:35.003Z,100.00
2019-04-25T02:57:07.794Z,100.00
2019-04-25T02:59:37.068Z,100.00
2019-04-25T03:02:09.355Z,100.00
2019-04-25T03:04:39.269Z,100.00
2019-04-25T03:07:11.245Z,100.00
2019-04-25T03:09:42.080Z,100.00
2019-04-25T03:12:26.772Z,100.00
2019-04-25T03:14:44.609Z,100.00
2019-04-25T03:17:14.903Z,100.00
2019-04-25T03:20:08.044Z,100.00
2019-04-25T03:22:36.565Z,100.00
2019-04-25T03:25:11.587Z,100.00
2019-04-25T03:27:39.557Z,100.00
2019-04-25T03:30:13.725Z,100.00
2019-04-25T03:32:44.807Z,100.00
2019-04-25T03:35:14.473Z,100.00
2019-04-25T03:37:44.415Z,100.00
2019-04-25T03:40:14.377Z,100.00
2019-04-25T03:42:44.300Z,100.00
2019-04-25T03:45:14.902Z,100.00
2019-04-25T03:47:44.963Z,100.00
2019-04-25T03:50:14.747Z,100.00
2019-04-25T03:52:44.804Z,100.00
2019-04-25T03:55:15.835Z,100.00
2019-04-25T03:57:45.620Z,100.00
2019-04-25T04:00:15.538Z,100.00
2019-04-25T04:02:45.510Z,100.00
2019-04-25T04:05:15.279Z,100.00
2019-04-25T04:07:45.187Z,100.00
2019-04-25T04:10:16.350Z,100.00
2019-04-25T04:12:46.266Z,100.00
2019-04-25T04:15:17.157Z,100.00
2019-04-25T04:18:08.665Z,100.00
2019-04-25T04:21:09.363Z,100.00
2019-04-25T04:23:48.272Z,100.00
2019-04-25T04:26:18.273Z,100.00
2019-04-25T04:28:48.234Z,100.00
2019-04-25T04:31:18.105Z,100.00
2019-04-25T04:33:47.970Z,100.00
2019-04-25T04:36:18.988Z,100.00
2019-04-25T04:38:49.922Z,100.00
2019-04-25T04:41:19.488Z,100.00
2019-04-25T04:43:49.003Z,100.00
2019-04-25T04:46:19.788Z,100.00
2019-04-25T04:48:49.320Z,100.00
2019-04-25T04:51:19.015Z,100.00
2019-04-25T04:53:49.967Z,100.00
2019-04-25T04:56:19.657Z,100.00
2019-04-25T04:58:49.401Z,100.00
2019-04-25T05:01:20.895Z,100.00
2019-04-25T05:04:01.114Z,100.00
2019-04-25T05:06:35.888Z,100.00
2019-04-25T05:09:19.775Z,100.00
2019-04-25T05:11:49.940Z,100.00
2019-04-25T05:14:19.681Z,100.00
2019-04-25T05:16:49.705Z,100.00
2019-04-25T05:19:20.756Z,100.00
2019-04-25T05:21:53.593Z,100.00
2019-04-25T05:24:24.982Z,100.00
2019-04-25T05:26:54.941Z,100.00
2019-04-25T05:29:26.716Z,100.00
2019-04-25T05:31:57.704Z,100.00
2019-04-25T05:34:27.648Z,100.00
2019-04-25T05:36:57.338Z,100.00
2019-04-25T05:39:27.398Z,100.00
2019-04-25T05:42:17.170Z,100.00
2019-04-25T05:44:47.422Z,100.00
2019-04-25T05:47:20.066Z,100.00
2019-04-25T05:49:48.861Z,100.00
2019-04-25T05:52:18.811Z,100.00
2019-04-25T05:54:48.359Z,100.00
2019-04-25T05:57:18.184Z,100.00
2019-04-25T05:59:48.034Z,100.00
2019-04-25T06:02:17.925Z,100.00
2019-04-25T06:04:47.747Z,99.44
2019-04-25T06:07:19.384Z,96.21
2019-04-25T06:09:56.855Z,93.40
2019-04-25T06:12:37.972Z,94.10
2019-04-25T06:15:08.087Z,94.29
2019-04-25T06:17:56.943Z,92.93
2019-04-25T06:20:30.107Z,93.01
2019-04-25T06:23:06.679Z,91.50
2019-04-25T06:25:39.874Z,90.26
2019-04-25T06:28:11.030Z,88.79
2019-04-25T06:30:40.984Z,87.73
2019-04-25T06:33:10.886Z,87.67
2019-04-25T06:35:40.606Z,87.00
2019-04-25T06:38:10.357Z,86.62
2019-04-25T06:40:40.124Z,85.32
2019-04-25T06:43:09.945Z,85.58
2019-04-25T06:45:58.721Z,84.21
2019-04-25T06:48:45.530Z,83.95
2019-04-25T06:51:15.958Z,84.53
2019-04-25T06:53:45.747Z,85.26
2019-04-25T06:56:15.695Z,84.50
2019-04-25T06:58:45.748Z,84.89
2019-04-25T07:01:15.597Z,84.67
2019-04-25T07:03:45.459Z,84.04
2019-04-25T07:06:15.598Z,85.38
2019-04-25T07:08:45.267Z,85.78
2019-04-25T07:11:16.439Z,85.21
2019-04-25T07:13:46.298Z,84.52
2019-04-25T07:16:16.025Z,82.07
2019-04-25T07:18:46.105Z,81.98
2019-04-25T07:21:15.955Z,80.94
2019-04-25T07:23:46.359Z,81.27
2019-04-25T07:26:30.408Z,83.33
2019-04-25T07:29:13.437Z,84.14
2019-04-25T07:32:09.089Z,83.28
2019-04-25T07:34:38.957Z,82.73
2019-04-25T07:37:09.841Z,81.30
2019-04-25T07:39:39.653Z,81.11
2019-04-25T07:42:09.669Z,80.70
2019-04-25T07:44:49.922Z,79.92
2019-04-25T07:47:10.893Z,80.20
2019-04-25T07:49:40.874Z,79.54
2019-04-25T07:52:11.589Z,80.06
2019-04-25T07:54:43.920Z,80.25
2019-04-25T07:57:13.718Z,79.82
2019-04-25T07:59:43.719Z,79.45
2019-04-25T08:02:13.611Z,77.89
2019-04-25T08:04:44.322Z,78.93
2019-04-25T08:07:15.810Z,80.13
2019-04-25T08:09:45.642Z,81.54
2019-04-25T08:12:15.657Z,81.46
2019-04-25T08:14:54.690Z,82.48
2019-04-25T08:17:44.061Z,82.02
2019-04-25T08:20:15.233Z,80.44
2019-04-25T08:22:55.745Z,79.91
2019-04-25T08:25:17.227Z,77.75
2019-04-25T08:27:47.312Z,78.84
2019-04-25T08:30:17.428Z,81.21
2019-04-25T08:32:48.154Z,81.66
2019-04-25T08:35:17.945Z,79.93
2019-04-25T08:37:47.936Z,80.58
2019-04-25T08:40:18.889Z,80.54
2019-04-25T08:42:48.776Z,79.81
2019-04-25T08:45:18.987Z,80.31
2019-04-25T08:47:48.771Z,80.20
2019-04-25T08:50:37.242Z,79.82
2019-04-25T08:53:05.403Z,79.45
2019-04-25T08:56:06.824Z,78.55
2019-04-25T08:59:10.779Z,78.51
2019-04-25T09:02:03.481Z,79.72
2019-04-25T09:04:54.019Z,79.06
2019-04-25T09:07:24.166Z,78.51
2019-04-25T09:09:53.951Z,79.19
2019-04-25T09:12:24.104Z,79.17
2019-04-25T09:14:54.255Z,78.00
2019-04-25T09:17:24.407Z,77.55
2019-04-25T09:19:54.400Z,77.60
2019-04-25T09:22:24.337Z,77.86
2019-04-25T09:24:54.180Z,77.49
2019-04-25T09:27:24.141Z,78.29
2019-04-25T09:29:54.261Z,77.70
2019-04-25T09:32:24.363Z,78.16
2019-04-25T09:34:55.438Z,79.06
2019-04-25T09:37:25.107Z,80.15
2019-04-25T09:40:08.503Z,80.56
2019-04-25T09:42:39.373Z,80.11
2019-04-25T09:45:28.401Z,80.79
2019-04-25T09:48:00.953Z,80.67
2019-04-25T09:50:53.360Z,81.42
2019-04-25T09:53:23.826Z,81.29
2019-04-25T09:56:01.058Z,80.19
2019-04-25T09:58:47.004Z,79.75
2019-04-25T10:01:17.389Z,79.99
2019-04-25T10:03:48.138Z,80.04
2019-04-25T10:06:19.843Z,79.75
2019-04-25T10:08:49.739Z,78.42
2019-04-25T10:11:19.422Z,78.75
2019-04-25T10:14:05.447Z,80.92
2019-04-25T10:16:35.221Z,79.88
2019-04-25T10:19:05.141Z,78.88
2019-04-25T10:21:35.475Z,78.61
2019-04-25T10:24:05.444Z,80.24
2019-04-25T10:26:35.212Z,81.00
2019-04-25T10:29:05.279Z,81.93
2019-04-25T10:31:34.946Z,81.17
2019-04-25T10:34:04.907Z,80.62
2019-04-25T10:36:34.630Z,81.48
2019-04-25T10:39:10.293Z,82.23
2019-04-25T10:41:39.770Z,82.26
2019-04-25T10:44:09.611Z,81.30
2019-04-25T10:46:40.181Z,81.50
2019-04-25T10:49:10.005Z,83.89
2019-04-25T10:51:39.896Z,83.20
2019-04-25T10:54:10.521Z,81.05
2019-04-25T10:56:41.653Z,81.35
2019-04-25T10:59:11.426Z,82.25
2019-04-25T11:01:41.308Z,82.30
2019-04-25T11:04:33.172Z,82.21
2019-04-25T11:07:03.772Z,81.40
2019-04-25T11:09:34.282Z,82.17
2019-04-25T11:12:04.736Z,81.84
2019-04-25T11:14:34.660Z,81.61
2019-04-25T11:17:06.040Z,81.95
2019-04-25T11:19:37.242Z,81.07
2019-04-25T11:22:07.755Z,81.84
2019-04-25T11:24:38.967Z,82.34
2019-04-25T11:27:08.843Z,79.31
2019-04-25T11:29:39.177Z,78.28
2019-04-25T11:32:09.092Z,77.57
2019-04-25T11:34:39.120Z,76.87
2019-04-25T11:37:08.831Z,75.21
2019-04-25T11:39:58.946Z,73.00
2019-04-25T11:42:29.121Z,76.22
2019-04-25T11:44:58.920Z,75.18
2019-04-25T11:47:29.106Z,73.49
2019-04-25T11:49:58.915Z,72.26
2019-04-25T11:52:30.323Z,72.36
2019-04-25T11:55:00.214Z,76.08
2019-04-25T11:57:31.297Z,77.74
2019-04-25T12:00:01.156Z,78.98
2019-04-25T12:02:30.912Z,80.13
2019-04-25T12:05:00.798Z,81.34
2019-04-25T12:07:30.508Z,80.77
2019-04-25T12:10:00.373Z,81.79
2019-04-25T12:12:30.384Z,81.89
2019-04-25T12:15:00.258Z,80.63
2019-04-25T12:17:30.203Z,78.35
2019-04-25T12:20:00.017Z,77.59
2019-04-25T12:22:31.175Z,76.56
2019-04-25T12:25:02.233Z,77.75
2019-04-25T12:27:32.158Z,77.33
2019-04-25T12:30:03.898Z,77.23
2019-04-25T12:32:35.181Z,75.59
2019-04-25T12:35:06.161Z,72.28
2019-04-25T12:37:36.362Z,71.41
2019-04-25T12:40:07.395Z,70.67
2019-04-25T12:42:37.259Z,69.48
2019-04-25T12:45:24.237Z,70.58
2019-04-25T12:47:57.267Z,70.36
2019-04-25T12:50:25.657Z,70.86
2019-04-25T12:52:56.080Z,70.16
2019-04-25T12:55:25.911Z,70.44
2019-04-25T12:57:56.569Z,70.16
2019-04-25T13:00:27.443Z,71.46
2019-04-25T13:02:58.763Z,72.19
2019-04-25T13:05:28.545Z,71.27
2019-04-25T13:07:59.728Z,71.00
2019-04-25T13:10:29.955Z,72.14
2019-04-25T13:12:59.866Z,74.40
2019-04-25T13:15:29.725Z,74.59
2019-04-25T13:17:59.653Z,76.76
2019-04-25T13:20:29.585Z,74.75
2019-04-25T13:23:00.510Z,73.76
2019-04-25T13:25:30.531Z,75.96
2019-04-25T13:28:17.493Z,76.54
2019-04-25T13:31:12.109Z,77.36
2019-04-25T13:33:55.046Z,76.72
2019-04-25T13:36:24.865Z,73.89
2019-04-25T13:38:54.681Z,75.93
2019-04-25T13:41:24.766Z,75.05
2019-04-25T13:43:54.803Z,74.56
2019-04-25T13:46:26.186Z,75.39
2019-04-25T13:48:56.141Z,76.62
2019-04-25T13:51:26.152Z,77.92
2019-04-25T13:53:56.028Z,76.31
2019-04-25T13:56:27.163Z,75.06
2019-04-25T13:58:57.302Z,74.44
2019-04-25T14:01:27.640Z,75.77
2019-04-25T14:03:57.516Z,76.99
2019-04-25T14:06:27.122Z,78.19
2019-04-25T14:08:56.919Z,78.14
2019-04-25T14:11:26.850Z,76.79
2019-04-25T14:13:56.717Z,79.36
2019-04-25T14:16:51.622Z,77.67
2019-04-25T14:19:54.175Z,75.91
2019-04-25T14:22:25.206Z,75.51
2019-04-25T14:24:55.211Z,75.37
2019-04-25T14:27:28.044Z,75.01
2019-04-25T14:29:58.363Z,74.98
2019-04-25T14:32:28.900Z,75.46
2019-04-25T14:34:59.926Z,75.75
2019-04-25T14:37:35.070Z,76.69
2019-04-25T14:40:04.074Z,75.83
2019-04-25T14:42:33.869Z,76.26
2019-04-25T14:45:05.013Z,75.62
2019-04-25T14:47:34.737Z,76.29
2019-04-25T14:50:04.777Z,76.95
2019-04-25T14:52:35.829Z,74.40
2019-04-25T14:55:24.768Z,76.48
2019-04-25T14:57:55.499Z,77.80
2019-04-25T15:00:31.436Z,77.60
2019-04-25T15:03:01.063Z,78.03
2019-04-25T15:05:31.002Z,78.06
2019-04-25T15:08:00.837Z,79.74
2019-04-25T15:10:30.797Z,80.92
2019-04-25T15:13:00.650Z,80.92
2019-04-25T15:15:31.817Z,81.96
2019-04-25T15:18:01.904Z,82.29
2019-04-25T15:20:32.331Z,83.63
2019-04-25T15:23:01.991Z,84.22
2019-04-25T15:25:31.882Z,83.84
2019-04-25T15:28:01.667Z,82.78
2019-04-25T15:30:34.502Z,81.19
2019-04-25T15:33:04.596Z,84.02
2019-04-25T15:35:49.589Z,86.16
2019-04-25T15:38:25.578Z,85.88
2019-04-25T15:41:04.313Z,85.31
2019-04-25T15:43:41.959Z,86.75
2019-04-25T15:46:19.620Z,87.15
2019-04-25T15:48:49.334Z,86.48
2019-04-25T15:51:19.147Z,87.64
2019-04-25T15:53:48.915Z,89.45
2019-04-25T15:56:18.805Z,90.09
2019-04-25T15:58:48.600Z,91.21
2019-04-25T16:01:18.688Z,93.16
2019-04-25T16:03:48.458Z,93.24
2019-04-25T16:06:18.365Z,93.56
2019-04-25T16:08:49.622Z,92.09
2019-04-25T16:11:19.412Z,91.68
2019-04-25T16:13:49.331Z,93.57
2019-04-25T16:16:20.517Z,94.71
2019-04-25T16:18:50.302Z,96.49
2019-04-25T16:21:20.227Z,98.84
2019-04-25T16:23:51.400Z,100.00
2019-04-25T16:26:21.252Z,100.00
2019-04-25T16:28:50.986Z,100.00
2019-04-25T16:31:24.589Z,100.00
2019-04-25T16:33:55.536Z,100.00
2019-04-25T16:36:25.349Z,100.00
2019-04-25T16:38:55.251Z,100.00
2019-04-25T16:41:26.407Z,100.00
2019-04-25T16:44:00.541Z,100.00
2019-04-25T16:46:30.334Z,100.00
2019-04-25T16:49:01.515Z,100.00
2019-04-25T16:51:31.374Z,100.00
2019-04-25T16:54:01.216Z,100.00
2019-04-25T16:56:31.066Z,100.00
2019-04-25T16:59:01.113Z,100.00
2019-04-25T17:01:31.671Z,100.00
2019-04-25T17:04:01.645Z,100.00
2019-04-25T17:06:31.656Z,100.00
2019-04-25T17:09:01.328Z,100.00
2019-04-25T17:11:31.965Z,100.00
2019-04-25T17:14:20.602Z,100.00
2019-04-25T17:17:02.966Z,100.00
2019-04-25T17:19:55.550Z,100.00
2019-04-25T17:22:26.673Z,100.00
2019-04-25T17:24:56.330Z,100.00
2019-04-25T17:27:26.163Z,100.00
2019-04-25T17:29:56.429Z,100.00
2019-04-25T17:32:50.336Z,100.00
2019-04-25T17:35:31.899Z,100.00
2019-04-25T17:38:24.736Z,100.00
2019-04-25T17:40:54.520Z,100.00
2019-04-25T17:43:24.564Z,100.00
2019-04-25T17:45:54.347Z,100.00
2019-04-25T17:48:24.303Z,100.00
2019-04-25T17:50:54.184Z,100.00
2019-04-25T17:53:24.000Z,100.00
2019-04-25T17:55:53.744Z,100.00
2019-04-25T17:58:23.666Z,100.00
2019-04-25T18:00:53.436Z,100.00
2019-04-25T18:03:23.454Z,100.00
2019-04-25T18:05:53.456Z,100.00
2019-04-25T18:08:23.824Z,100.00
2019-04-25T18:10:55.105Z,100.00
2019-04-25T18:13:24.855Z,100.00
2019-04-25T18:16:25.833Z,100.00
2019-04-25T18:19:04.011Z,100.00
2019-04-25T18:21:35.874Z,100.00
2019-04-25T18:24:37.145Z,100.00
2019-04-25T18:27:13.521Z,100.00
2019-04-25T18:29:43.705Z,100.00
2019-04-25T18:32:14.895Z,100.00
2019-04-25T18:34:54.727Z,100.00
2019-04-25T18:37:42.835Z,100.00
2019-04-25T18:40:24.130Z,100.00
2019-04-25T18:43:25.919Z,100.00
2019-04-25T18:46:00.240Z,100.00
2019-04-25T18:48:31.494Z,100.00
2019-04-25T18:51:01.297Z,100.00
2019-04-25T18:54:05.219Z,100.00
2019-04-25T18:56:50.068Z,100.00
2019-04-25T18:59:39.547Z,100.00
2019-04-25T19:02:38.524Z,100.00
2019-04-25T19:05:38.667Z,100.00
2019-04-25T19:08:09.305Z,100.00
2019-04-25T19:10:40.785Z,100.00
2019-04-25T19:13:12.794Z,100.00
2019-04-25T19:15:43.112Z,100.00
2019-04-25T19:18:12.866Z,100.00
2019-04-25T19:20:43.936Z,100.00
2019-04-25T19:23:13.842Z,100.00
2019-04-25T19:25:43.792Z,100.00
2019-04-25T19:28:14.810Z,100.00
2019-04-25T19:30:45.099Z,100.00
2019-04-25T19:33:15.355Z,100.00
2019-04-25T19:35:46.415Z,100.00
2019-04-25T19:38:16.190Z,100.00
2019-04-25T19:41:04.845Z,100.00
2019-04-25T19:43:54.123Z,100.00
2019-04-25T19:46:38.134Z,100.00
2019-04-25T19:49:08.199Z,100.00
2019-04-25T19:51:38.116Z,100.00
2019-04-25T19:54:08.195Z,100.00
2019-04-25T19:56:37.956Z,100.00
2019-04-25T19:59:07.973Z,100.00
2019-04-25T20:01:39.039Z,100.00
2019-04-25T20:04:39.982Z,100.00
2019-04-25T20:07:19.699Z,100.00
2019-04-25T20:09:57.496Z,100.00
2019-04-25T20:12:33.175Z,100.00
2019-04-25T20:15:04.292Z,100.00
2019-04-25T20:17:34.224Z,100.00
2019-04-25T20:20:05.529Z,100.00
2019-04-25T20:22:35.288Z,100.00
2019-04-25T20:25:05.716Z,100.00
2019-04-25T20:27:35.688Z,100.00
2019-04-25T20:30:06.292Z,100.00
2019-04-25T20:32:36.161Z,100.00
2019-04-25T20:35:06.590Z,100.00
2019-04-25T20:37:36.357Z,100.00
2019-04-25T20:40:06.630Z,100.00
2019-04-25T20:42:36.452Z,100.00
2019-04-25T20:45:08.457Z,100.00
2019-04-25T20:47:38.422Z,100.00
2019-04-25T20:50:09.061Z,100.00
2019-04-25T20:52:38.960Z,100.00
2019-04-25T20:55:08.995Z,100.00
2019-04-25T20:57:38.752Z,100.00
2019-04-25T21:00:09.920Z,100.00
2019-04-25T21:02:39.695Z,100.00
2019-04-25T21:05:09.722Z,100.00
2019-04-25T21:07:40.652Z,100.00
2019-04-25T21:10:10.592Z,100.00
2019-04-25T21:12:40.361Z,100.00
2019-04-25T21:15:36.724Z,100.00
2019-04-25T21:18:14.430Z,100.00
2019-04-25T21:20:44.287Z,100.00
2019-04-25T21:23:13.936Z,100.00
2019-04-25T21:25:43.731Z,100.00
2019-04-25T21:28:14.604Z,100.00
2019-04-25T21:30:44.385Z,100.00
2019-04-25T21:33:14.107Z,100.00
2019-04-25T21:35:43.992Z,100.00
2019-04-25T21:38:15.437Z,100.00
2019-04-25T21:41:09.954Z,100.00
2019-04-25T21:43:44.623Z,100.00
2019-04-25T21:46:14.762Z,100.00
2019-04-25T21:48:44.644Z,100.00
2019-04-25T21:51:33.060Z,100.00
2019-04-25T21:54:03.925Z,100.00
2019-04-25T21:56:34.167Z,100.00
2019-04-25T21:59:04.255Z,100.00
2019-04-25T22:01:40.051Z,100.00
2019-04-25T22:04:09.921Z,100.00
2019-04-25T22:06:39.951Z,100.00
2019-04-25T22:09:15.230Z,100.00
2019-04-25T22:11:45.306Z,100.00
2019-04-25T22:14:16.251Z,100.00
2019-04-25T22:16:46.429Z,100.00
2019-04-25T22:19:16.428Z,100.00
2019-04-25T22:21:46.724Z,100.00
2019-04-25T22:24:16.981Z,100.00
2019-04-25T22:26:49.391Z,100.00
2019-04-25T22:29:19.110Z,100.00
2019-04-25T22:32:15.062Z,100.00
2019-04-25T22:34:55.435Z,100.00
2019-04-25T22:37:26.555Z,100.00
2019-04-25T22:39:56.599Z,100.00
2019-04-25T22:42:26.515Z,100.00
2019-04-25T22:44:57.690Z,100.00
2019-04-25T22:47:27.473Z,100.00
2019-04-25T22:49:57.317Z,100.00
2019-04-25T22:52:27.369Z,100.00
2019-04-25T22:54:57.209Z,100.00
2019-04-25T22:57:27.031Z,100.00
2019-04-25T22:59:56.844Z,100.00
2019-04-25T23:02:46.142Z,100.00
2019-04-25T23:05:28.837Z,100.00
2019-04-25T23:07:58.903Z,100.00
2019-04-25T23:10:29.069Z,100.00
2019-04-25T23:12:58.914Z,100.00
2019-04-25T23:15:28.805Z,100.00
2019-04-25T23:17:58.784Z,100.00
2019-04-25T23:20:28.446Z,100.00
2019-04-25T23:22:58.371Z,100.00
2019-04-25T23:25:34.263Z,100.00
2019-04-25T23:28:12.248Z,100.00
2019-04-25T23:31:13.336Z,100.00
2019-04-25T23:33:43.240Z,100.00
2019-04-25T23:36:13.238Z,100.00
2019-04-25T23:38:42.942Z,100.00
2019-04-25T23:41:13.601Z,100.00
2019-04-25T23:43:43.367Z,100.00
2019-04-25T23:46:14.182Z,100.00
2019-04-25T23:48:44.132Z,100.00
2019-04-25T23:51:14.060Z,100.00
2019-04-25T23:53:44.945Z,100.00
2019-04-25T23:56:15.272Z,100.00
2019-04-25T23:58:45.453Z,100.00
